This is the latest recevied weather packets stored in our database for station/object SQ7RAF-15. If no packets are shown the sender has not sent any weather packets the latest 1 day(s).
| Time | Temp. | Humidity | Pressure | Rain* | Wind** | Luminosity | Snow |
|---|---|---|---|---|---|---|---|
| 1836274720 | 12.78° C | 98% | 1023.5 hPa | 0 mm | 0 m/s | 0 W/m² | - |
| 1836274546 | 12.78° C | 98% | 1023.4 hPa | 0 mm | 0 m/s | 0 W/m² | - |
| 1836274400 | 12.78° C | 98% | 1023.5 hPa | 0 mm | 0 m/s | 0 W/m² | - |
| 1836274258 | 12.78° C | 98% | 1023.4 hPa | 0 mm | 0 m/s | 0 W/m² | - |
| 1836274112 | 12.78° C | 98% | 1023.7 hPa | 0 mm | 0 m/s | 0 W/m² | - |
| 1778014824 | 15.56° C | 82% | 1005.6 hPa | 0 mm | 0 m/s | 0 W/m² | - |
| 1778014216 | 15.56° C | 82% | 1005.7 hPa | 0 mm | 0 m/s | 0 W/m² | - |
| 1778013032 | 16.67° C | 79% | 1005.7 hPa | 0 mm | 0.45 m/s, 322° | 0 W/m² | - |
| 1778012745 | 16.67° C | 77% | 1005.6 hPa | 0 mm | 0.45 m/s, 323° | 0 W/m² | - |
| 1778012424 | 16.67° C | 76% | 1005.6 hPa | 0 mm | 0 m/s | 0 W/m² | - |
| 1778012137 | 17.22° C | 76% | 1005.6 hPa | 0 mm | 0 m/s | 0 W/m² | - |
| 1778011816 | 17.22° C | 75% | 1005.5 hPa | 0 mm | 0 m/s | 0 W/m² | - |
| 1778011529 | 17.22° C | 72% | 1005.5 hPa | 0 mm | 0 m/s | 0 W/m² | - |
| 1778011240 | 17.22° C | 71% | 1005.5 hPa | 0 mm | 0 m/s | 0 W/m² | - |
| 1778010921 | 17.22° C | 69% | 1005.5 hPa | 0 mm | 0.45 m/s, 323° | 0 W/m² | - |
| 1778010632 | 16.67° C | 65% | 1005.4 hPa | 0 mm | 0.45 m/s, 318° | 0 W/m² | - |
| 1778010344 | 17.22° C | 62% | 1005.3 hPa | 0 mm | 0 m/s | 0 W/m² | - |
| 1778010024 | 17.78° C | 62% | 1005.5 hPa | 0 mm | 0.45 m/s, 317° | 0 W/m² | - |
| 1778009736 | 17.22° C | 60% | 1005.4 hPa | 0 mm | 0.45 m/s, 316° | 0 W/m² | - |
| 1778009416 | 16.67° C | 59% | 1005.3 hPa | 0 mm | 0.45 m/s, 334° | 0 W/m² | - |
| 1778009129 | 16.67° C | 60% | 1005.4 hPa | 0 mm | 0.45 m/s, 320° | 0 W/m² | - |
| 1778008840 | 16.67° C | 58% | 1005.2 hPa | 0 mm | 0.89 m/s, 322° | 0 W/m² | - |
| 1778008520 | 16.67° C | 57% | 1005.2 hPa | 0 mm | 0.45 m/s, 327° | 0 W/m² | - |
| 1778007944 | 17.22° C | 56% | 1005.1 hPa | 0 mm | 0 m/s | 0 W/m² | - |
| 1778007640 | 17.78° C | 55% | 1005 hPa | 0 mm | 0.45 m/s, 325° | 0 W/m² | - |
* Rain latest hour (hover to see other rain measurements)
** Current wind speed in m/s (hover to see current wind gust speed)